sensor_id;sensor_type;location;lat;lon;timestamp;temperature;humidity
3942;DHT22;1985;48.592;8.850;2023-08-01T00:00:33;18.40;99.90
3942;DHT22;1985;48.592;8.850;2023-08-01T00:02:59;18.50;99.90
3942;DHT22;1985;48.592;8.850;2023-08-01T00:05:24;18.30;99.90
3942;DHT22;1985;48.592;8.850;2023-08-01T00:07:51;18.30;99.90
3942;DHT22;1985;48.592;8.850;2023-08-01T00:10:17;18.50;99.90
3942;DHT22;1985;48.592;8.850;2023-08-01T00:12:42;18.60;99.90
3942;DHT22;1985;48.592;8.850;2023-08-01T00:15:09;18.70;99.90
3942;DHT22;1985;48.592;8.850;2023-08-01T00:17:35;18.70;99.90
3942;DHT22;1985;48.592;8.850;2023-08-01T00:20:02;18.70;99.90
3942;DHT22;1985;48.592;8.850;2023-08-01T00:22:28;18.60;99.90
3942;DHT22;1985;48.592;8.850;2023-08-01T00:24:54;18.60;99.90
3942;DHT22;1985;48.592;8.850;2023-08-01T00:27:19;18.70;99.90
3942;DHT22;1985;48.592;8.850;2023-08-01T00:29:45;18.80;99.90
3942;DHT22;1985;48.592;8.850;2023-08-01T00:32:11;18.70;99.90
3942;DHT22;1985;48.592;8.850;2023-08-01T00:34:37;18.70;99.90
3942;DHT22;1985;48.592;8.850;2023-08-01T00:37:02;18.70;99.90
3942;DHT22;1985;48.592;8.850;2023-08-01T00:39:28;18.70;99.90
3942;DHT22;1985;48.592;8.850;2023-08-01T00:41:54;18.70;99.90
3942;DHT22;1985;48.592;8.850;2023-08-01T00:44:20;18.60;99.90
3942;DHT22;1985;48.592;8.850;2023-08-01T00:46:46;18.60;99.90
3942;DHT22;1985;48.592;8.850;2023-08-01T00:49:12;18.60;99.90
3942;DHT22;1985;48.592;8.850;2023-08-01T00:51:38;18.60;99.90
3942;DHT22;1985;48.592;8.850;2023-08-01T00:54:04;18.60;99.90
3942;DHT22;1985;48.592;8.850;2023-08-01T00:56:29;18.60;99.90
3942;DHT22;1985;48.592;8.850;2023-08-01T00:58:55;18.70;99.90
3942;DHT22;1985;48.592;8.850;2023-08-01T01:01:21;18.50;99.90
3942;DHT22;1985;48.592;8.850;2023-08-01T01:03:47;18.50;99.90
3942;DHT22;1985;48.592;8.850;2023-08-01T01:06:37;18.60;99.90
3942;DHT22;1985;48.592;8.850;2023-08-01T01:09:23;18.60;99.90
3942;DHT22;1985;48.592;8.850;2023-08-01T01:11:49;18.50;99.90
3942;DHT22;1985;48.592;8.850;2023-08-01T01:14:14;18.50;99.90
3942;DHT22;1985;48.592;8.850;2023-08-01T01:16:40;18.30;99.90
3942;DHT22;1985;48.592;8.850;2023-08-01T01:19:08;18.30;99.90
3942;DHT22;1985;48.592;8.850;2023-08-01T01:21:35;18.20;99.90
3942;DHT22;1985;48.592;8.850;2023-08-01T01:24:03;17.90;99.90
3942;DHT22;1985;48.592;8.850;2023-08-01T01:26:31;17.80;99.90
3942;DHT22;1985;48.592;8.850;2023-08-01T01:28:57;17.70;99.90
3942;DHT22;1985;48.592;8.850;2023-08-01T01:31:23;17.60;99.90
3942;DHT22;1985;48.592;8.850;2023-08-01T01:33:49;17.30;99.90
3942;DHT22;1985;48.592;8.850;2023-08-01T01:36:15;17.40;99.90
3942;DHT22;1985;48.592;8.850;2023-08-01T01:38:40;17.50;99.90
3942;DHT22;1985;48.592;8.850;2023-08-01T01:41:06;17.30;99.90
3942;DHT22;1985;48.592;8.850;2023-08-01T01:43:31;17.30;99.90
3942;DHT22;1985;48.592;8.850;2023-08-01T01:45:57;17.20;99.90
3942;DHT22;1985;48.592;8.850;2023-08-01T01:48:23;17.10;99.90
3942;DHT22;1985;48.592;8.850;2023-08-01T01:50:48;16.90;99.90
3942;DHT22;1985;48.592;8.850;2023-08-01T01:53:14;16.80;99.90
3942;DHT22;1985;48.592;8.850;2023-08-01T01:55:39;16.70;99.90
3942;DHT22;1985;48.592;8.850;2023-08-01T01:58:05;16.80;99.90
3942;DHT22;1985;48.592;8.850;2023-08-01T02:00:31;16.80;99.90
3942;DHT22;1985;48.592;8.850;2023-08-01T02:02:57;16.90;99.90
3942;DHT22;1985;48.592;8.850;2023-08-01T02:05:22;17.00;99.90
3942;DHT22;1985;48.592;8.850;2023-08-01T02:07:48;17.10;99.90
3942;DHT22;1985;48.592;8.850;2023-08-01T02:10:14;17.20;99.90
3942;DHT22;1985;48.592;8.850;2023-08-01T02:12:39;17.40;99.90
3942;DHT22;1985;48.592;8.850;2023-08-01T02:15:05;17.50;99.90
3942;DHT22;1985;48.592;8.850;2023-08-01T02:17:31;17.70;99.90
3942;DHT22;1985;48.592;8.850;2023-08-01T02:19:57;17.80;99.90
3942;DHT22;1985;48.592;8.850;2023-08-01T02:22:24;17.80;99.90
3942;DHT22;1985;48.592;8.850;2023-08-01T02:24:50;17.90;99.90
3942;DHT22;1985;48.592;8.850;2023-08-01T02:27:15;18.00;99.90
3942;DHT22;1985;48.592;8.850;2023-08-01T02:29:41;18.10;99.90
3942;DHT22;1985;48.592;8.850;2023-08-01T02:32:07;18.20;99.90
3942;DHT22;1985;48.592;8.850;2023-08-01T02:34:32;18.20;99.90
3942;DHT22;1985;48.592;8.850;2023-08-01T02:36:58;18.30;99.90
3942;DHT22;1985;48.592;8.850;2023-08-01T02:39:24;18.40;99.90
3942;DHT22;1985;48.592;8.850;2023-08-01T02:41:49;18.40;99.90
3942;DHT22;1985;48.592;8.850;2023-08-01T02:44:15;18.50;99.90
3942;DHT22;1985;48.592;8.850;2023-08-01T02:46:41;18.60;99.90
3942;DHT22;1985;48.592;8.850;2023-08-01T02:49:06;18.60;99.90
3942;DHT22;1985;48.592;8.850;2023-08-01T02:51:32;18.60;99.90
3942;DHT22;1985;48.592;8.850;2023-08-01T02:53:58;18.60;99.90
3942;DHT22;1985;48.592;8.850;2023-08-01T02:56:23;18.60;99.90
3942;DHT22;1985;48.592;8.850;2023-08-01T02:58:49;18.70;99.90
3942;DHT22;1985;48.592;8.850;2023-08-01T03:01:17;18.70;99.90
3942;DHT22;1985;48.592;8.850;2023-08-01T03:03:42;18.60;99.90
3942;DHT22;1985;48.592;8.850;2023-08-01T03:06:08;18.60;99.90
3942;DHT22;1985;48.592;8.850;2023-08-01T03:08:34;18.60;99.90
3942;DHT22;1985;48.592;8.850;2023-08-01T03:10:59;18.70;99.90
3942;DHT22;1985;48.592;8.850;2023-08-01T03:13:25;18.70;99.90
3942;DHT22;1985;48.592;8.850;2023-08-01T03:15:51;18.70;99.90
3942;DHT22;1985;48.592;8.850;2023-08-01T03:18:17;18.70;99.90
3942;DHT22;1985;48.592;8.850;2023-08-01T03:20:42;18.70;99.90
3942;DHT22;1985;48.592;8.850;2023-08-01T03:23:08;18.60;99.90
3942;DHT22;1985;48.592;8.850;2023-08-01T03:25:33;18.60;99.90
3942;DHT22;1985;48.592;8.850;2023-08-01T03:27:59;18.60;99.90
3942;DHT22;1985;48.592;8.850;2023-08-01T03:30:25;18.50;99.90
3942;DHT22;1985;48.592;8.850;2023-08-01T03:32:51;18.40;99.90
3942;DHT22;1985;48.592;8.850;2023-08-01T03:35:16;18.30;99.90
3942;DHT22;1985;48.592;8.850;2023-08-01T03:37:42;18.30;99.90
3942;DHT22;1985;48.592;8.850;2023-08-01T03:40:08;18.30;99.90
3942;DHT22;1985;48.592;8.850;2023-08-01T03:42:37;18.20;99.90
3942;DHT22;1985;48.592;8.850;2023-08-01T03:45:03;18.30;99.90
3942;DHT22;1985;48.592;8.850;2023-08-01T03:47:29;18.30;99.90
3942;DHT22;1985;48.592;8.850;2023-08-01T03:49:55;18.30;99.90
3942;DHT22;1985;48.592;8.850;2023-08-01T03:52:20;18.30;99.90
3942;DHT22;1985;48.592;8.850;2023-08-01T03:54:46;18.40;99.90
3942;DHT22;1985;48.592;8.850;2023-08-01T03:57:12;18.40;99.90
3942;DHT22;1985;48.592;8.850;2023-08-01T03:59:37;18.40;99.90
3942;DHT22;1985;48.592;8.850;2023-08-01T04:02:03;18.30;99.90
3942;DHT22;1985;48.592;8.850;2023-08-01T04:04:29;18.30;99.90
3942;DHT22;1985;48.592;8.850;2023-08-01T04:06:56;18.40;99.90
3942;DHT22;1985;48.592;8.850;2023-08-01T04:09:22;18.40;99.90
3942;DHT22;1985;48.592;8.850;2023-08-01T04:11:47;18.40;99.90
3942;DHT22;1985;48.592;8.850;2023-08-01T04:14:13;18.40;99.90
3942;DHT22;1985;48.592;8.850;2023-08-01T04:16:39;18.40;99.90
3942;DHT22;1985;48.592;8.850;2023-08-01T04:19:05;18.30;99.90
3942;DHT22;1985;48.592;8.850;2023-08-01T04:21:30;18.20;99.90
3942;DHT22;1985;48.592;8.850;2023-08-01T04:23:56;18.00;99.90
3942;DHT22;1985;48.592;8.850;2023-08-01T04:26:22;17.90;99.90
3942;DHT22;1985;48.592;8.850;2023-08-01T04:28:47;17.90;99.90
3942;DHT22;1985;48.592;8.850;2023-08-01T04:31:13;18.00;99.90
3942;DHT22;1985;48.592;8.850;2023-08-01T04:33:39;18.00;99.90
3942;DHT22;1985;48.592;8.850;2023-08-01T04:36:05;18.10;99.90
3942;DHT22;1985;48.592;8.850;2023-08-01T04:38:30;18.00;99.90
3942;DHT22;1985;48.592;8.850;2023-08-01T04:40:56;18.00;99.90
3942;DHT22;1985;48.592;8.850;2023-08-01T04:43:21;17.90;99.90
3942;DHT22;1985;48.592;8.850;2023-08-01T04:45:47;18.00;99.90
3942;DHT22;1985;48.592;8.850;2023-08-01T04:48:12;17.90;99.90
3942;DHT22;1985;48.592;8.850;2023-08-01T04:50:38;17.90;99.90
3942;DHT22;1985;48.592;8.850;2023-08-01T04:53:04;17.90;99.90
3942;DHT22;1985;48.592;8.850;2023-08-01T04:55:29;17.90;99.90
3942;DHT22;1985;48.592;8.850;2023-08-01T04:57:55;17.90;99.90
3942;DHT22;1985;48.592;8.850;2023-08-01T05:00:21;17.90;99.90
3942;DHT22;1985;48.592;8.850;2023-08-01T05:02:46;17.90;99.90
3942;DHT22;1985;48.592;8.850;2023-08-01T05:05:12;17.90;99.90
3942;DHT22;1985;48.592;8.850;2023-08-01T05:07:37;18.00;99.90
3942;DHT22;1985;48.592;8.850;2023-08-01T05:10:03;18.00;99.90
3942;DHT22;1985;48.592;8.850;2023-08-01T05:12:29;18.00;99.90
3942;DHT22;1985;48.592;8.850;2023-08-01T05:14:54;18.10;99.90
3942;DHT22;1985;48.592;8.850;2023-08-01T05:17:20;18.10;99.90
3942;DHT22;1985;48.592;8.850;2023-08-01T05:19:46;18.10;99.90
3942;DHT22;1985;48.592;8.850;2023-08-01T05:22:11;18.10;99.90
3942;DHT22;1985;48.592;8.850;2023-08-01T05:24:37;18.10;99.90
3942;DHT22;1985;48.592;8.850;2023-08-01T05:27:03;18.20;99.90
3942;DHT22;1985;48.592;8.850;2023-08-01T05:29:28;18.10;99.90
3942;DHT22;1985;48.592;8.850;2023-08-01T05:31:54;18.10;99.90
3942;DHT22;1985;48.592;8.850;2023-08-01T05:34:20;18.20;99.90
3942;DHT22;1985;48.592;8.850;2023-08-01T05:36:45;18.20;99.90
3942;DHT22;1985;48.592;8.850;2023-08-01T05:39:11;18.20;99.90
3942;DHT22;1985;48.592;8.850;2023-08-01T05:41:36;18.20;99.90
3942;DHT22;1985;48.592;8.850;2023-08-01T05:44:03;18.20;99.90
3942;DHT22;1985;48.592;8.850;2023-08-01T05:46:29;18.20;99.90
3942;DHT22;1985;48.592;8.850;2023-08-01T05:48:55;18.30;99.90
3942;DHT22;1985;48.592;8.850;2023-08-01T05:51:20;18.30;99.90
3942;DHT22;1985;48.592;8.850;2023-08-01T05:53:46;18.30;99.90
3942;DHT22;1985;48.592;8.850;2023-08-01T05:56:11;18.40;99.90
3942;DHT22;1985;48.592;8.850;2023-08-01T05:58:37;18.40;99.90
3942;DHT22;1985;48.592;8.850;2023-08-01T06:01:03;18.30;99.90
3942;DHT22;1985;48.592;8.850;2023-08-01T06:03:29;18.40;99.90
3942;DHT22;1985;48.592;8.850;2023-08-01T06:05:54;18.40;99.90
3942;DHT22;1985;48.592;8.850;2023-08-01T06:08:20;18.30;99.90
3942;DHT22;1985;48.592;8.850;2023-08-01T06:10:46;18.30;99.90
3942;DHT22;1985;48.592;8.850;2023-08-01T06:13:12;18.20;99.90
3942;DHT22;1985;48.592;8.850;2023-08-01T06:15:38;18.20;99.90
3942;DHT22;1985;48.592;8.850;2023-08-01T06:18:03;18.20;99.90
3942;DHT22;1985;48.592;8.850;2023-08-01T06:20:29;18.20;99.90
3942;DHT22;1985;48.592;8.850;2023-08-01T06:22:55;18.10;99.90
3942;DHT22;1985;48.592;8.850;2023-08-01T06:25:20;18.10;99.90
3942;DHT22;1985;48.592;8.850;2023-08-01T06:27:46;18.10;99.90
3942;DHT22;1985;48.592;8.850;2023-08-01T06:30:12;18.10;99.90
3942;DHT22;1985;48.592;8.850;2023-08-01T06:32:37;18.10;99.90
3942;DHT22;1985;48.592;8.850;2023-08-01T06:35:03;18.10;99.90
3942;DHT22;1985;48.592;8.850;2023-08-01T06:37:29;18.10;99.90
3942;DHT22;1985;48.592;8.850;2023-08-01T06:39:55;18.10;99.90
3942;DHT22;1985;48.592;8.850;2023-08-01T06:42:20;18.20;99.90
3942;DHT22;1985;48.592;8.850;2023-08-01T06:44:46;18.10;99.90
3942;DHT22;1985;48.592;8.850;2023-08-01T06:47:12;18.20;99.90
3942;DHT22;1985;48.592;8.850;2023-08-01T06:49:37;18.10;99.90
3942;DHT22;1985;48.592;8.850;2023-08-01T06:52:03;18.00;99.90
3942;DHT22;1985;48.592;8.850;2023-08-01T06:54:29;18.00;99.90
3942;DHT22;1985;48.592;8.850;2023-08-01T06:56:55;18.00;99.90
3942;DHT22;1985;48.592;8.850;2023-08-01T06:59:20;18.10;99.90
3942;DHT22;1985;48.592;8.850;2023-08-01T07:01:46;18.10;99.90
3942;DHT22;1985;48.592;8.850;2023-08-01T07:04:12;18.00;99.90
3942;DHT22;1985;48.592;8.850;2023-08-01T07:06:38;18.00;99.90
3942;DHT22;1985;48.592;8.850;2023-08-01T07:09:04;18.00;99.90
3942;DHT22;1985;48.592;8.850;2023-08-01T07:11:30;18.00;99.90
3942;DHT22;1985;48.592;8.850;2023-08-01T07:13:55;17.90;99.90
3942;DHT22;1985;48.592;8.850;2023-08-01T07:16:21;17.80;99.90
3942;DHT22;1985;48.592;8.850;2023-08-01T07:18:47;17.80;99.90
3942;DHT22;1985;48.592;8.850;2023-08-01T07:21:14;17.80;99.90
3942;DHT22;1985;48.592;8.850;2023-08-01T07:23:39;17.90;99.90
3942;DHT22;1985;48.592;8.850;2023-08-01T07:26:05;18.00;99.90
3942;DHT22;1985;48.592;8.850;2023-08-01T07:28:31;18.00;99.90
3942;DHT22;1985;48.592;8.850;2023-08-01T07:31:01;17.60;99.90
3942;DHT22;1985;48.592;8.850;2023-08-01T07:33:27;17.40;99.90
3942;DHT22;1985;48.592;8.850;2023-08-01T07:35:53;17.00;99.90
3942;DHT22;1985;48.592;8.850;2023-08-01T07:38:19;16.90;99.90
3942;DHT22;1985;48.592;8.850;2023-08-01T07:40:44;16.90;99.90
3942;DHT22;1985;48.592;8.850;2023-08-01T07:43:10;16.70;99.90
3942;DHT22;1985;48.592;8.850;2023-08-01T07:45:36;16.50;99.90
3942;DHT22;1985;48.592;8.850;2023-08-01T07:48:02;16.40;99.90
3942;DHT22;1985;48.592;8.850;2023-08-01T07:50:27;16.30;99.90
3942;DHT22;1985;48.592;8.850;2023-08-01T07:52:53;16.20;99.90
3942;DHT22;1985;48.592;8.850;2023-08-01T07:55:18;16.10;99.90
3942;DHT22;1985;48.592;8.850;2023-08-01T07:57:46;16.00;99.90
3942;DHT22;1985;48.592;8.850;2023-08-01T08:00:12;16.00;99.90
3942;DHT22;1985;48.592;8.850;2023-08-01T08:02:38;15.90;99.90
3942;DHT22;1985;48.592;8.850;2023-08-01T08:05:04;15.90;99.90
3942;DHT22;1985;48.592;8.850;2023-08-01T08:07:30;15.90;99.90
3942;DHT22;1985;48.592;8.850;2023-08-01T08:09:56;15.90;99.90
3942;DHT22;1985;48.592;8.850;2023-08-01T08:12:22;16.00;99.90
3942;DHT22;1985;48.592;8.850;2023-08-01T08:14:48;16.00;99.90
3942;DHT22;1985;48.592;8.850;2023-08-01T08:17:14;16.10;99.90
3942;DHT22;1985;48.592;8.850;2023-08-01T08:19:40;16.10;99.90
3942;DHT22;1985;48.592;8.850;2023-08-01T08:22:06;16.10;99.90
3942;DHT22;1985;48.592;8.850;2023-08-01T08:24:32;16.20;99.90
3942;DHT22;1985;48.592;8.850;2023-08-01T08:26:57;16.20;99.90
3942;DHT22;1985;48.592;8.850;2023-08-01T08:29:23;16.20;99.90
3942;DHT22;1985;48.592;8.850;2023-08-01T08:31:48;16.30;99.90
3942;DHT22;1985;48.592;8.850;2023-08-01T08:34:14;16.40;99.90
3942;DHT22;1985;48.592;8.850;2023-08-01T08:36:40;16.60;99.90
3942;DHT22;1985;48.592;8.850;2023-08-01T08:39:05;16.50;99.90
3942;DHT22;1985;48.592;8.850;2023-08-01T08:41:43;16.50;99.90
3942;DHT22;1985;48.592;8.850;2023-08-01T08:44:11;16.50;99.90
3942;DHT22;1985;48.592;8.850;2023-08-01T08:46:41;16.50;99.90
3942;DHT22;1985;48.592;8.850;2023-08-01T08:49:10;16.50;99.90
3942;DHT22;1985;48.592;8.850;2023-08-01T08:51:37;16.50;99.90
3942;DHT22;1985;48.592;8.850;2023-08-01T08:54:05;16.50;99.90
3942;DHT22;1985;48.592;8.850;2023-08-01T08:56:31;16.50;99.90
3942;DHT22;1985;48.592;8.850;2023-08-01T08:58:59;16.60;99.90
3942;DHT22;1985;48.592;8.850;2023-08-01T09:01:26;16.70;99.90
3942;DHT22;1985;48.592;8.850;2023-08-01T09:03:52;16.70;99.90
3942;DHT22;1985;48.592;8.850;2023-08-01T09:06:23;16.80;99.90
3942;DHT22;1985;48.592;8.850;2023-08-01T09:09:10;16.80;99.90
3942;DHT22;1985;48.592;8.850;2023-08-01T09:11:44;17.00;99.90
3942;DHT22;1985;48.592;8.850;2023-08-01T09:14:10;17.10;99.90
3942;DHT22;1985;48.592;8.850;2023-08-01T09:16:35;17.20;99.90
3942;DHT22;1985;48.592;8.850;2023-08-01T09:19:01;17.20;99.90
3942;DHT22;1985;48.592;8.850;2023-08-01T09:21:31;17.20;99.90
3942;DHT22;1985;48.592;8.850;2023-08-01T09:24:07;17.20;99.90
3942;DHT22;1985;48.592;8.850;2023-08-01T09:26:33;17.30;99.90
3942;DHT22;1985;48.592;8.850;2023-08-01T09:28:58;17.30;99.90
3942;DHT22;1985;48.592;8.850;2023-08-01T09:31:31;17.20;99.90
3942;DHT22;1985;48.592;8.850;2023-08-01T09:33:56;17.20;99.90
3942;DHT22;1985;48.592;8.850;2023-08-01T09:36:23;17.30;99.90
3942;DHT22;1985;48.592;8.850;2023-08-01T09:38:49;17.30;99.90
3942;DHT22;1985;48.592;8.850;2023-08-01T09:41:18;17.40;99.90
3942;DHT22;1985;48.592;8.850;2023-08-01T09:43:46;17.60;99.90
3942;DHT22;1985;48.592;8.850;2023-08-01T09:46:12;17.60;99.90
3942;DHT22;1985;48.592;8.850;2023-08-01T09:48:38;17.70;99.90
3942;DHT22;1985;48.592;8.850;2023-08-01T09:53:31;17.80;99.90
3942;DHT22;1985;48.592;8.850;2023-08-01T09:56:00;17.70;99.90
3942;DHT22;1985;48.592;8.850;2023-08-01T09:58:33;17.70;99.90
3942;DHT22;1985;48.592;8.850;2023-08-01T10:01:00;17.80;99.90
3942;DHT22;1985;48.592;8.850;2023-08-01T10:03:29;17.80;99.90
3942;DHT22;1985;48.592;8.850;2023-08-01T10:05:56;18.00;99.90
3942;DHT22;1985;48.592;8.850;2023-08-01T10:08:22;18.00;99.90
3942;DHT22;1985;48.592;8.850;2023-08-01T10:10:48;18.20;99.90
3942;DHT22;1985;48.592;8.850;2023-08-01T10:13:14;18.20;99.90
3942;DHT22;1985;48.592;8.850;2023-08-01T10:15:41;18.20;99.90
3942;DHT22;1985;48.592;8.850;2023-08-01T10:18:07;18.20;99.90
3942;DHT22;1985;48.592;8.850;2023-08-01T10:20:36;18.30;99.90
3942;DHT22;1985;48.592;8.850;2023-08-01T10:23:03;18.50;99.90
3942;DHT22;1985;48.592;8.850;2023-08-01T10:25:30;18.60;99.90
3942;DHT22;1985;48.592;8.850;2023-08-01T10:28:03;18.50;99.90
3942;DHT22;1985;48.592;8.850;2023-08-01T10:30:29;18.60;99.90
3942;DHT22;1985;48.592;8.850;2023-08-01T10:32:56;18.90;99.90
3942;DHT22;1985;48.592;8.850;2023-08-01T10:35:39;19.10;99.90
3942;DHT22;1985;48.592;8.850;2023-08-01T10:38:07;19.50;99.90
3942;DHT22;1985;48.592;8.850;2023-08-01T10:40:37;20.00;99.90
3942;DHT22;1985;48.592;8.850;2023-08-01T10:43:03;20.40;99.90
3942;DHT22;1985;48.592;8.850;2023-08-01T10:45:29;20.60;99.90
3942;DHT22;1985;48.592;8.850;2023-08-01T10:48:06;20.90;99.90
3942;DHT22;1985;48.592;8.850;2023-08-01T10:50:32;21.10;99.90
3942;DHT22;1985;48.592;8.850;2023-08-01T10:53:09;20.70;99.90
3942;DHT22;1985;48.592;8.850;2023-08-01T10:55:45;20.50;99.90
3942;DHT22;1985;48.592;8.850;2023-08-01T10:58:12;20.40;99.90
3942;DHT22;1985;48.592;8.850;2023-08-01T11:00:38;20.20;99.90
3942;DHT22;1985;48.592;8.850;2023-08-01T11:03:04;20.40;99.90
3942;DHT22;1985;48.592;8.850;2023-08-01T11:05:30;20.80;99.90
3942;DHT22;1985;48.592;8.850;2023-08-01T11:07:58;21.20;99.90
3942;DHT22;1985;48.592;8.850;2023-08-01T11:10:25;21.00;99.90
3942;DHT22;1985;48.592;8.850;2023-08-01T11:12:51;21.30;99.90
3942;DHT22;1985;48.592;8.850;2023-08-01T11:15:18;21.10;99.90
3942;DHT22;1985;48.592;8.850;2023-08-01T11:17:49;21.00;99.90
3942;DHT22;1985;48.592;8.850;2023-08-01T11:20:15;21.20;99.90
3942;DHT22;1985;48.592;8.850;2023-08-01T11:22:58;21.40;99.90
3942;DHT22;1985;48.592;8.850;2023-08-01T11:25:41;21.30;99.90
3942;DHT22;1985;48.592;8.850;2023-08-01T11:28:10;21.90;99.90
3942;DHT22;1985;48.592;8.850;2023-08-01T11:30:36;22.30;99.90
3942;DHT22;1985;48.592;8.850;2023-08-01T11:33:22;22.50;99.90
3942;DHT22;1985;48.592;8.850;2023-08-01T11:35:55;22.40;99.90
3942;DHT22;1985;48.592;8.850;2023-08-01T11:38:29;22.30;99.90
3942;DHT22;1985;48.592;8.850;2023-08-01T11:40:57;22.40;99.90
3942;DHT22;1985;48.592;8.850;2023-08-01T11:43:23;22.50;99.90
3942;DHT22;1985;48.592;8.850;2023-08-01T11:45:53;22.40;99.90
3942;DHT22;1985;48.592;8.850;2023-08-01T11:48:26;22.00;99.90
3942;DHT22;1985;48.592;8.850;2023-08-01T11:51:00;22.00;99.90
3942;DHT22;1985;48.592;8.850;2023-08-01T11:53:26;22.20;99.90
3942;DHT22;1985;48.592;8.850;2023-08-01T11:55:53;22.50;99.90
3942;DHT22;1985;48.592;8.850;2023-08-01T11:58:35;22.10;99.90
3942;DHT22;1985;48.592;8.850;2023-08-01T12:01:11;21.80;99.90
3942;DHT22;1985;48.592;8.850;2023-08-01T12:06:12;21.80;99.90
3942;DHT22;1985;48.592;8.850;2023-08-01T12:08:40;21.80;99.90
3942;DHT22;1985;48.592;8.850;2023-08-01T12:11:06;21.40;99.90
3942;DHT22;1985;48.592;8.850;2023-08-01T12:13:43;21.00;99.90
3942;DHT22;1985;48.592;8.850;2023-08-01T12:16:08;20.70;99.90
3942;DHT22;1985;48.592;8.850;2023-08-01T12:18:34;20.60;99.90
3942;DHT22;1985;48.592;8.850;2023-08-01T12:20:59;21.00;99.90
3942;DHT22;1985;48.592;8.850;2023-08-01T12:23:25;21.20;99.90
3942;DHT22;1985;48.592;8.850;2023-08-01T12:25:51;21.50;99.90
3942;DHT22;1985;48.592;8.850;2023-08-01T12:28:16;21.80;99.90
3942;DHT22;1985;48.592;8.850;2023-08-01T12:30:43;22.00;99.90
3942;DHT22;1985;48.592;8.850;2023-08-01T12:33:09;22.10;99.90
3942;DHT22;1985;48.592;8.850;2023-08-01T12:35:38;22.50;99.90
3942;DHT22;1985;48.592;8.850;2023-08-01T12:38:04;22.60;98.80
3942;DHT22;1985;48.592;8.850;2023-08-01T12:40:29;22.40;98.20
3942;DHT22;1985;48.592;8.850;2023-08-01T12:42:55;22.40;97.40
3942;DHT22;1985;48.592;8.850;2023-08-01T12:45:20;22.60;97.80
3942;DHT22;1985;48.592;8.850;2023-08-01T12:47:46;23.20;98.30
3942;DHT22;1985;48.592;8.850;2023-08-01T12:50:12;23.30;97.70
3942;DHT22;1985;48.592;8.850;2023-08-01T12:52:37;23.40;97.00
3942;DHT22;1985;48.592;8.850;2023-08-01T12:55:03;22.80;95.30
3942;DHT22;1985;48.592;8.850;2023-08-01T12:57:29;22.60;95.50
3942;DHT22;1985;48.592;8.850;2023-08-01T12:59:54;22.50;96.00
3942;DHT22;1985;48.592;8.850;2023-08-01T13:02:20;22.40;94.80
3942;DHT22;1985;48.592;8.850;2023-08-01T13:04:46;22.70;94.50
3942;DHT22;1985;48.592;8.850;2023-08-01T13:07:11;22.80;94.00
3942;DHT22;1985;48.592;8.850;2023-08-01T13:09:37;22.70;94.50
3942;DHT22;1985;48.592;8.850;2023-08-01T13:12:03;22.90;95.80
3942;DHT22;1985;48.592;8.850;2023-08-01T13:14:28;23.30;93.80
3942;DHT22;1985;48.592;8.850;2023-08-01T13:16:54;23.30;93.30
3942;DHT22;1985;48.592;8.850;2023-08-01T13:19:19;23.40;94.10
3942;DHT22;1985;48.592;8.850;2023-08-01T13:21:45;23.70;92.30
3942;DHT22;1985;48.592;8.850;2023-08-01T13:24:11;23.70;92.40
3942;DHT22;1985;48.592;8.850;2023-08-01T13:26:36;23.50;91.70
3942;DHT22;1985;48.592;8.850;2023-08-01T13:29:02;22.90;90.20
3942;DHT22;1985;48.592;8.850;2023-08-01T13:31:28;22.60;90.30
3942;DHT22;1985;48.592;8.850;2023-08-01T13:33:57;22.70;90.40
3942;DHT22;1985;48.592;8.850;2023-08-01T13:36:23;22.80;90.40
3942;DHT22;1985;48.592;8.850;2023-08-01T13:38:50;23.10;90.50
3942;DHT22;1985;48.592;8.850;2023-08-01T13:41:15;23.50;90.00
3942;DHT22;1985;48.592;8.850;2023-08-01T13:43:41;23.40;87.20
3942;DHT22;1985;48.592;8.850;2023-08-01T13:46:17;23.40;87.50
3942;DHT22;1985;48.592;8.850;2023-08-01T13:48:44;23.30;85.20
3942;DHT22;1985;48.592;8.850;2023-08-01T13:51:10;22.70;85.60
3942;DHT22;1985;48.592;8.850;2023-08-01T13:53:36;22.40;87.50
3942;DHT22;1985;48.592;8.850;2023-08-01T13:56:12;22.30;90.00
3942;DHT22;1985;48.592;8.850;2023-08-01T13:58:41;22.60;91.20
3942;DHT22;1985;48.592;8.850;2023-08-01T14:01:08;23.00;90.90
3942;DHT22;1985;48.592;8.850;2023-08-01T14:03:37;23.30;88.30
3942;DHT22;1985;48.592;8.850;2023-08-01T14:06:13;23.40;88.90
3942;DHT22;1985;48.592;8.850;2023-08-01T14:08:40;23.20;84.20
3942;DHT22;1985;48.592;8.850;2023-08-01T14:11:08;23.10;86.80
3942;DHT22;1985;48.592;8.850;2023-08-01T14:13:34;22.70;86.10
3942;DHT22;1985;48.592;8.850;2023-08-01T14:16:01;22.60;85.10
3942;DHT22;1985;48.592;8.850;2023-08-01T14:18:27;22.60;87.00
3942;DHT22;1985;48.592;8.850;2023-08-01T14:20:53;22.90;88.90
3942;DHT22;1985;48.592;8.850;2023-08-01T14:23:20;22.90;85.20
3942;DHT22;1985;48.592;8.850;2023-08-01T14:25:45;22.90;88.30
3942;DHT22;1985;48.592;8.850;2023-08-01T14:28:11;23.00;88.20
3942;DHT22;1985;48.592;8.850;2023-08-01T14:30:37;22.80;88.90
3942;DHT22;1985;48.592;8.850;2023-08-01T14:33:07;23.00;88.70
3942;DHT22;1985;48.592;8.850;2023-08-01T14:35:37;22.80;85.80
3942;DHT22;1985;48.592;8.850;2023-08-01T14:38:04;22.70;86.10
3942;DHT22;1985;48.592;8.850;2023-08-01T14:40:30;22.90;87.30
3942;DHT22;1985;48.592;8.850;2023-08-01T14:42:56;23.10;87.70
3942;DHT22;1985;48.592;8.850;2023-08-01T14:45:22;23.20;86.90
3942;DHT22;1985;48.592;8.850;2023-08-01T14:47:47;23.20;87.40
3942;DHT22;1985;48.592;8.850;2023-08-01T14:50:14;23.10;87.60
3942;DHT22;1985;48.592;8.850;2023-08-01T14:52:40;23.00;87.90
3942;DHT22;1985;48.592;8.850;2023-08-01T14:55:07;23.00;88.90
3942;DHT22;1985;48.592;8.850;2023-08-01T14:57:33;22.90;88.80
3942;DHT22;1985;48.592;8.850;2023-08-01T14:59:58;22.50;88.50
3942;DHT22;1985;48.592;8.850;2023-08-01T15:02:25;22.40;90.40
3942;DHT22;1985;48.592;8.850;2023-08-01T15:04:51;22.00;90.30
3942;DHT22;1985;48.592;8.850;2023-08-01T15:07:17;22.00;91.50
3942;DHT22;1985;48.592;8.850;2023-08-01T15:09:43;21.90;91.10
3942;DHT22;1985;48.592;8.850;2023-08-01T15:12:09;22.00;91.10
3942;DHT22;1985;48.592;8.850;2023-08-01T15:14:36;21.90;91.00
3942;DHT22;1985;48.592;8.850;2023-08-01T15:17:01;21.90;91.20
3942;DHT22;1985;48.592;8.850;2023-08-01T15:19:27;22.00;92.20
3942;DHT22;1985;48.592;8.850;2023-08-01T15:21:53;22.10;91.40
3942;DHT22;1985;48.592;8.850;2023-08-01T15:24:18;22.20;90.50
3942;DHT22;1985;48.592;8.850;2023-08-01T15:26:44;22.20;90.50
3942;DHT22;1985;48.592;8.850;2023-08-01T15:29:09;22.10;90.50
3942;DHT22;1985;48.592;8.850;2023-08-01T15:31:35;21.90;90.70
3942;DHT22;1985;48.592;8.850;2023-08-01T15:34:01;21.90;91.20
3942;DHT22;1985;48.592;8.850;2023-08-01T15:36:29;21.80;91.00
3942;DHT22;1985;48.592;8.850;2023-08-01T15:38:57;21.70;91.50
3942;DHT22;1985;48.592;8.850;2023-08-01T15:41:23;21.90;92.10
3942;DHT22;1985;48.592;8.850;2023-08-01T15:43:49;22.00;91.20
3942;DHT22;1985;48.592;8.850;2023-08-01T15:46:15;22.00;90.20
3942;DHT22;1985;48.592;8.850;2023-08-01T15:48:40;22.00;90.60
3942;DHT22;1985;48.592;8.850;2023-08-01T15:51:06;22.10;89.80
3942;DHT22;1985;48.592;8.850;2023-08-01T15:53:33;21.90;88.60
3942;DHT22;1985;48.592;8.850;2023-08-01T15:56:00;21.90;89.60
3942;DHT22;1985;48.592;8.850;2023-08-01T15:58:27;21.80;87.30
3942;DHT22;1985;48.592;8.850;2023-08-01T16:00:52;21.70;87.60
3942;DHT22;1985;48.592;8.850;2023-08-01T16:03:19;21.80;89.50